sensor_id;sensor_type;location;lat;lon;timestamp;P1;durP1;ratioP1;P2;durP2;ratioP2
43901;SDS011;29562;40.390;-3.706;2023-07-02T00:06:21;3.63;;;0.88;;
43901;SDS011;29562;40.390;-3.706;2023-07-02T00:16:22;1.77;;;0.60;;
43901;SDS011;29562;40.390;-3.706;2023-07-02T00:26:24;1.52;;;0.65;;
43901;SDS011;29562;40.390;-3.706;2023-07-02T00:36:25;0.82;;;0.50;;
43901;SDS011;29562;40.390;-3.706;2023-07-02T00:46:26;1.75;;;0.63;;
43901;SDS011;29562;40.390;-3.706;2023-07-02T00:56:27;2.17;;;0.60;;
43901;SDS011;29562;40.390;-3.706;2023-07-02T01:06:29;1.73;;;0.75;;
43901;SDS011;29562;40.390;-3.706;2023-07-02T01:16:31;1.23;;;0.70;;
43901;SDS011;29562;40.390;-3.706;2023-07-02T01:26:32;1.67;;;1.00;;
43901;SDS011;29562;40.390;-3.706;2023-07-02T01:36:34;1.80;;;1.10;;
43901;SDS011;29562;40.390;-3.706;2023-07-02T01:46:36;1.55;;;0.82;;
43901;SDS011;29562;40.390;-3.706;2023-07-02T01:56:37;1.38;;;0.70;;
43901;SDS011;29562;40.390;-3.706;2023-07-02T02:06:38;3.80;;;1.00;;
43901;SDS011;29562;40.390;-3.706;2023-07-02T02:16:39;4.05;;;1.10;;
43901;SDS011;29562;40.390;-3.706;2023-07-02T02:26:40;3.17;;;1.10;;
43901;SDS011;29562;40.390;-3.706;2023-07-02T02:36:41;1.55;;;0.98;;
43901;SDS011;29562;40.390;-3.706;2023-07-02T02:46:43;1.92;;;1.35;;
43901;SDS011;29562;40.390;-3.706;2023-07-02T02:56:44;2.92;;;1.45;;
43901;SDS011;29562;40.390;-3.706;2023-07-02T03:06:46;2.75;;;1.55;;
43901;SDS011;29562;40.390;-3.706;2023-07-02T03:16:47;4.40;;;1.75;;
43901;SDS011;29562;40.390;-3.706;2023-07-02T03:26:48;2.63;;;1.70;;
43901;SDS011;29562;40.390;-3.706;2023-07-02T03:36:49;3.22;;;2.03;;
43901;SDS011;29562;40.390;-3.706;2023-07-02T03:46:50;5.55;;;1.88;;
43901;SDS011;29562;40.390;-3.706;2023-07-02T03:56:51;2.38;;;1.42;;
43901;SDS011;29562;40.390;-3.706;2023-07-02T04:06:52;2.70;;;1.88;;
43901;SDS011;29562;40.390;-3.706;2023-07-02T04:16:53;2.88;;;1.85;;
43901;SDS011;29562;40.390;-3.706;2023-07-02T04:26:54;2.45;;;1.92;;
43901;SDS011;29562;40.390;-3.706;2023-07-02T04:36:55;2.83;;;1.88;;
43901;SDS011;29562;40.390;-3.706;2023-07-02T04:47:00;1.92;;;1.52;;
43901;SDS011;29562;40.390;-3.706;2023-07-02T04:57:02;2.35;;;1.70;;
43901;SDS011;29562;40.390;-3.706;2023-07-02T05:07:03;2.33;;;1.70;;
43901;SDS011;29562;40.390;-3.706;2023-07-02T05:17:04;2.50;;;1.50;;
43901;SDS011;29562;40.390;-3.706;2023-07-02T05:27:06;2.30;;;1.58;;
43901;SDS011;29562;40.390;-3.706;2023-07-02T05:37:07;2.50;;;1.45;;
43901;SDS011;29562;40.390;-3.706;2023-07-02T05:47:08;2.10;;;1.50;;
43901;SDS011;29562;40.390;-3.706;2023-07-02T05:57:09;2.88;;;1.60;;
43901;SDS011;29562;40.390;-3.706;2023-07-02T06:07:10;3.00;;;1.50;;
43901;SDS011;29562;40.390;-3.706;2023-07-02T06:17:11;2.55;;;1.42;;
43901;SDS011;29562;40.390;-3.706;2023-07-02T06:27:12;3.60;;;1.60;;
43901;SDS011;29562;40.390;-3.706;2023-07-02T06:37:13;3.42;;;1.50;;
43901;SDS011;29562;40.390;-3.706;2023-07-02T06:47:14;2.58;;;1.25;;
43901;SDS011;29562;40.390;-3.706;2023-07-02T06:57:16;3.42;;;1.67;;
43901;SDS011;29562;40.390;-3.706;2023-07-02T07:07:17;1.50;;;1.17;;
43901;SDS011;29562;40.390;-3.706;2023-07-02T07:17:18;3.50;;;1.40;;
43901;SDS011;29562;40.390;-3.706;2023-07-02T07:27:20;3.88;;;1.70;;
43901;SDS011;29562;40.390;-3.706;2023-07-02T07:37:21;3.50;;;1.77;;
43901;SDS011;29562;40.390;-3.706;2023-07-02T07:47:22;4.35;;;1.45;;
43901;SDS011;29562;40.390;-3.706;2023-07-02T07:57:24;4.30;;;1.60;;
43901;SDS011;29562;40.390;-3.706;2023-07-02T08:07:25;1.20;;;1.10;;
43901;SDS011;29562;40.390;-3.706;2023-07-02T08:17:26;3.95;;;1.60;;
43901;SDS011;29562;40.390;-3.706;2023-07-02T08:27:27;1.52;;;1.38;;
43901;SDS011;29562;40.390;-3.706;2023-07-02T08:37:28;3.40;;;1.40;;
43901;SDS011;29562;40.390;-3.706;2023-07-02T08:47:30;2.47;;;1.40;;
43901;SDS011;29562;40.390;-3.706;2023-07-02T08:57:31;2.65;;;1.45;;
43901;SDS011;29562;40.390;-3.706;2023-07-02T09:07:42;4.43;;;1.40;;
43901;SDS011;29562;40.390;-3.706;2023-07-02T09:17:44;4.38;;;1.80;;
43901;SDS011;29562;40.390;-3.706;2023-07-02T09:27:45;2.40;;;1.65;;
43901;SDS011;29562;40.390;-3.706;2023-07-02T09:37:47;3.25;;;2.35;;
43901;SDS011;29562;40.390;-3.706;2023-07-02T09:47:49;5.00;;;2.33;;
43901;SDS011;29562;40.390;-3.706;2023-07-02T09:57:51;4.72;;;2.90;;
43901;SDS011;29562;40.390;-3.706;2023-07-02T10:07:52;3.90;;;2.65;;
43901;SDS011;29562;40.390;-3.706;2023-07-02T10:17:54;5.63;;;2.95;;
43901;SDS011;29562;40.390;-3.706;2023-07-02T10:27:56;3.85;;;2.80;;
43901;SDS011;29562;40.390;-3.706;2023-07-02T10:37:57;5.47;;;2.80;;
43901;SDS011;29562;40.390;-3.706;2023-07-02T10:47:58;6.18;;;3.35;;
43901;SDS011;29562;40.390;-3.706;2023-07-02T10:58:06;4.80;;;2.92;;
43901;SDS011;29562;40.390;-3.706;2023-07-02T11:08:08;3.83;;;3.05;;
43901;SDS011;29562;40.390;-3.706;2023-07-02T11:18:13;6.18;;;2.95;;
43901;SDS011;29562;40.390;-3.706;2023-07-02T11:28:14;3.23;;;2.57;;
43901;SDS011;29562;40.390;-3.706;2023-07-02T11:38:16;3.95;;;2.00;;
43901;SDS011;29562;40.390;-3.706;2023-07-02T11:48:17;3.80;;;2.25;;
43901;SDS011;29562;40.390;-3.706;2023-07-02T11:58:18;3.72;;;2.35;;
43901;SDS011;29562;40.390;-3.706;2023-07-02T12:08:19;1.65;;;1.40;;
43901;SDS011;29562;40.390;-3.706;2023-07-02T12:18:20;3.58;;;1.80;;
43901;SDS011;29562;40.390;-3.706;2023-07-02T12:28:21;3.58;;;1.70;;
43901;SDS011;29562;40.390;-3.706;2023-07-02T12:38:22;3.00;;;1.38;;
43901;SDS011;29562;40.390;-3.706;2023-07-02T12:48:23;2.85;;;1.98;;
43901;SDS011;29562;40.390;-3.706;2023-07-02T12:58:24;3.45;;;1.83;;
43901;SDS011;29562;40.390;-3.706;2023-07-02T13:08:25;5.18;;;3.03;;
43901;SDS011;29562;40.390;-3.706;2023-07-02T13:18:27;2.97;;;1.48;;
43901;SDS011;29562;40.390;-3.706;2023-07-02T13:28:28;1.52;;;1.10;;
43901;SDS011;29562;40.390;-3.706;2023-07-02T13:38:29;2.03;;;1.27;;
43901;SDS011;29562;40.390;-3.706;2023-07-02T13:48:30;6.28;;;4.70;;
43901;SDS011;29562;40.390;-3.706;2023-07-02T14:09:08;3.45;;;2.20;;
43901;SDS011;29562;40.390;-3.706;2023-07-02T14:19:09;3.17;;;1.67;;
43901;SDS011;29562;40.390;-3.706;2023-07-02T14:29:12;2.45;;;1.17;;
43901;SDS011;29562;40.390;-3.706;2023-07-02T14:39:13;1.83;;;1.50;;
43901;SDS011;29562;40.390;-3.706;2023-07-02T14:49:14;2.20;;;1.10;;
43901;SDS011;29562;40.390;-3.706;2023-07-02T14:59:15;4.22;;;1.88;;
43901;SDS011;29562;40.390;-3.706;2023-07-02T15:09:16;1.77;;;1.23;;
43901;SDS011;29562;40.390;-3.706;2023-07-02T15:19:18;3.08;;;1.30;;
43901;SDS011;29562;40.390;-3.706;2023-07-02T15:29:19;1.58;;;1.00;;
43901;SDS011;29562;40.390;-3.706;2023-07-02T15:39:21;4.20;;;1.20;;
43901;SDS011;29562;40.390;-3.706;2023-07-02T15:49:25;2.75;;;1.13;;
43901;SDS011;29562;40.390;-3.706;2023-07-02T15:59:26;3.00;;;1.48;;
43901;SDS011;29562;40.390;-3.706;2023-07-02T16:09:27;2.20;;;1.10;;
43901;SDS011;29562;40.390;-3.706;2023-07-02T16:19:28;1.92;;;1.23;;
43901;SDS011;29562;40.390;-3.706;2023-07-02T16:29:29;2.55;;;1.73;;
43901;SDS011;29562;40.390;-3.706;2023-07-02T16:39:31;3.60;;;1.73;;
43901;SDS011;29562;40.390;-3.706;2023-07-02T16:49:32;3.28;;;1.42;;
43901;SDS011;29562;40.390;-3.706;2023-07-02T16:59:33;1.65;;;1.00;;
43901;SDS011;29562;40.390;-3.706;2023-07-02T17:09:38;2.97;;;1.30;;
43901;SDS011;29562;40.390;-3.706;2023-07-02T17:19:41;3.17;;;1.85;;
43901;SDS011;29562;40.390;-3.706;2023-07-02T17:29:47;2.50;;;1.77;;
43901;SDS011;29562;40.390;-3.706;2023-07-02T17:39:49;3.70;;;1.63;;
43901;SDS011;29562;40.390;-3.706;2023-07-02T17:49:51;4.82;;;3.50;;
43901;SDS011;29562;40.390;-3.706;2023-07-02T17:59:52;2.78;;;1.83;;
43901;SDS011;29562;40.390;-3.706;2023-07-02T18:09:55;10.40;;;7.20;;
43901;SDS011;29562;40.390;-3.706;2023-07-02T18:19:57;17.30;;;11.15;;
43901;SDS011;29562;40.390;-3.706;2023-07-02T18:29:58;4.53;;;2.75;;
43901;SDS011;29562;40.390;-3.706;2023-07-02T18:39:59;3.05;;;2.10;;
43901;SDS011;29562;40.390;-3.706;2023-07-02T18:50:01;7.13;;;2.80;;
43901;SDS011;29562;40.390;-3.706;2023-07-02T19:00:03;3.75;;;2.30;;
43901;SDS011;29562;40.390;-3.706;2023-07-02T19:10:05;3.45;;;2.20;;
43901;SDS011;29562;40.390;-3.706;2023-07-02T19:20:07;2.88;;;1.73;;
43901;SDS011;29562;40.390;-3.706;2023-07-02T19:30:08;4.25;;;2.10;;
43901;SDS011;29562;40.390;-3.706;2023-07-02T19:40:09;4.32;;;2.50;;
43901;SDS011;29562;40.390;-3.706;2023-07-02T19:50:10;3.45;;;2.50;;
43901;SDS011;29562;40.390;-3.706;2023-07-02T20:00:12;4.07;;;2.13;;
43901;SDS011;29562;40.390;-3.706;2023-07-02T20:10:13;5.55;;;2.45;;
43901;SDS011;29562;40.390;-3.706;2023-07-02T20:20:14;4.28;;;2.40;;
43901;SDS011;29562;40.390;-3.706;2023-07-02T20:30:16;4.28;;;2.33;;
43901;SDS011;29562;40.390;-3.706;2023-07-02T20:40:17;4.20;;;2.50;;
43901;SDS011;29562;40.390;-3.706;2023-07-02T20:50:18;4.85;;;3.28;;
43901;SDS011;29562;40.390;-3.706;2023-07-02T21:00:19;6.13;;;3.20;;
43901;SDS011;29562;40.390;-3.706;2023-07-02T21:10:20;8.50;;;4.07;;
43901;SDS011;29562;40.390;-3.706;2023-07-02T21:20:21;6.95;;;4.97;;
43901;SDS011;29562;40.390;-3.706;2023-07-02T21:30:23;7.53;;;4.93;;
43901;SDS011;29562;40.390;-3.706;2023-07-02T21:40:25;11.23;;;4.97;;
43901;SDS011;29562;40.390;-3.706;2023-07-02T21:50:26;7.57;;;4.22;;
43901;SDS011;29562;40.390;-3.706;2023-07-02T22:00:27;4.70;;;2.88;;
43901;SDS011;29562;40.390;-3.706;2023-07-02T22:10:28;2.97;;;1.40;;
43901;SDS011;29562;40.390;-3.706;2023-07-02T22:20:31;2.90;;;1.10;;
43901;SDS011;29562;40.390;-3.706;2023-07-02T22:30:32;1.23;;;0.85;;
43901;SDS011;29562;40.390;-3.706;2023-07-02T22:40:33;2.85;;;1.00;;
43901;SDS011;29562;40.390;-3.706;2023-07-02T22:50:34;1.63;;;0.82;;
43901;SDS011;29562;40.390;-3.706;2023-07-02T23:00:37;3.05;;;0.90;;
43901;SDS011;29562;40.390;-3.706;2023-07-02T23:10:38;1.90;;;0.95;;
43901;SDS011;29562;40.390;-3.706;2023-07-02T23:20:39;1.10;;;0.63;;
43901;SDS011;29562;40.390;-3.706;2023-07-02T23:30:40;2.38;;;0.80;;
43901;SDS011;29562;40.390;-3.706;2023-07-02T23:40:41;2.35;;;0.80;;
43901;SDS011;29562;40.390;-3.706;2023-07-02T23:50:44;1.58;;;0.57;;
